createdAt,value
2023-05-15T00:02:28.122Z,23.75
2023-05-15T00:05:01.176Z,23.75
2023-05-15T00:07:34.701Z,23.74
2023-05-15T00:10:11.878Z,23.73
2023-05-15T00:12:45.691Z,23.72
2023-05-15T00:15:19.090Z,23.71
2023-05-15T00:17:52.144Z,23.71
2023-05-15T00:20:24.802Z,23.70
2023-05-15T00:23:01.991Z,23.69
2023-05-15T00:25:37.925Z,23.69
2023-05-15T00:28:10.890Z,23.68
2023-05-15T00:30:44.055Z,23.67
2023-05-15T00:33:17.025Z,23.67
2023-05-15T00:35:50.116Z,23.66
2023-05-15T00:38:22.836Z,23.66
2023-05-15T00:40:56.182Z,23.65
2023-05-15T00:43:30.087Z,23.65
2023-05-15T00:46:03.180Z,23.64
2023-05-15T00:48:35.916Z,23.64
2023-05-15T00:51:08.728Z,23.63
2023-05-15T00:53:42.105Z,23.63
2023-05-15T00:56:14.868Z,23.62
2023-05-15T00:58:47.802Z,23.62
2023-05-15T01:01:21.076Z,23.61
2023-05-15T01:03:54.122Z,23.60
2023-05-15T01:06:27.376Z,23.60
2023-05-15T01:09:00.928Z,23.59
2023-05-15T01:11:34.120Z,23.59
2023-05-15T01:14:07.079Z,23.58
2023-05-15T01:16:40.051Z,23.58
2023-05-15T01:19:13.060Z,23.57
2023-05-15T01:21:46.204Z,23.56
2023-05-15T01:24:19.145Z,23.56
2023-05-15T01:26:53.145Z,23.55
2023-05-15T01:29:26.273Z,23.54
2023-05-15T01:32:00.279Z,23.54
2023-05-15T01:34:32.985Z,23.54
2023-05-15T01:37:06.190Z,23.53
2023-05-15T01:39:39.095Z,23.52
2023-05-15T01:42:11.994Z,23.52
2023-05-15T01:44:44.812Z,23.51
2023-05-15T01:47:17.876Z,23.51
2023-05-15T01:49:51.306Z,23.50
2023-05-15T01:52:24.016Z,23.49
2023-05-15T01:54:57.289Z,23.48
2023-05-15T01:57:30.995Z,23.48
2023-05-15T02:00:04.052Z,23.47
2023-05-15T02:02:37.409Z,23.46
2023-05-15T02:05:11.027Z,23.45
2023-05-15T02:07:44.146Z,23.45
2023-05-15T02:10:17.139Z,23.44
2023-05-15T02:12:50.126Z,23.43
2023-05-15T02:15:23.590Z,23.43
2023-05-15T02:17:56.319Z,23.42
2023-05-15T02:20:29.221Z,23.41
2023-05-15T02:23:01.929Z,23.40
2023-05-15T02:25:35.130Z,23.40
2023-05-15T02:28:07.908Z,23.39
2023-05-15T02:30:41.153Z,23.38
2023-05-15T02:33:14.313Z,23.38
2023-05-15T02:35:47.185Z,23.37
2023-05-15T02:38:20.019Z,23.37
2023-05-15T02:40:53.310Z,23.36
2023-05-15T02:43:26.278Z,23.35
2023-05-15T02:45:59.465Z,23.35
2023-05-15T02:48:33.305Z,23.34
2023-05-15T02:51:10.180Z,23.34
2023-05-15T02:53:43.231Z,23.33
2023-05-15T02:56:16.254Z,23.32
2023-05-15T02:58:49.182Z,23.32
2023-05-15T03:01:23.399Z,23.31
2023-05-15T03:03:56.262Z,23.31
2023-05-15T03:06:29.336Z,23.30
2023-05-15T03:09:02.388Z,23.30
2023-05-15T03:11:36.224Z,23.29
2023-05-15T03:14:09.318Z,23.29
2023-05-15T03:16:41.943Z,23.29
2023-05-15T03:19:15.451Z,23.28
2023-05-15T03:21:48.291Z,23.27
2023-05-15T03:24:21.151Z,23.27
2023-05-15T03:26:54.511Z,23.26
2023-05-15T03:29:28.092Z,23.26
2023-05-15T03:32:01.458Z,23.25
2023-05-15T03:34:35.092Z,23.25
2023-05-15T03:37:08.457Z,23.24
2023-05-15T03:39:42.282Z,23.24
2023-05-15T03:42:15.184Z,23.23
2023-05-15T03:44:48.219Z,23.22
2023-05-15T03:47:21.233Z,23.22
2023-05-15T03:49:54.473Z,23.21
2023-05-15T03:52:30.147Z,23.21
2023-05-15T03:55:03.184Z,23.20
2023-05-15T03:57:36.358Z,23.20
2023-05-15T04:00:09.351Z,23.19
2023-05-15T04:02:42.074Z,23.19
2023-05-15T04:05:15.553Z,23.18
2023-05-15T04:07:49.402Z,23.17
2023-05-15T04:10:22.445Z,23.17
2023-05-15T04:13:09.179Z,23.16
2023-05-15T04:15:42.023Z,23.15
2023-05-15T04:18:15.181Z,23.15
2023-05-15T04:20:48.397Z,23.14
2023-05-15T04:23:21.312Z,23.13
2023-05-15T04:25:54.211Z,23.13
2023-05-15T04:28:28.743Z,23.12
2023-05-15T04:31:01.625Z,23.12
2023-05-15T04:33:35.485Z,23.11
2023-05-15T04:36:08.283Z,23.10
2023-05-15T04:38:41.271Z,23.10
2023-05-15T04:41:14.050Z,23.09
2023-05-15T04:43:47.091Z,23.09
2023-05-15T04:46:20.136Z,23.08
2023-05-15T04:48:56.703Z,23.07
2023-05-15T04:51:30.376Z,23.07
2023-05-15T04:54:06.216Z,23.06
2023-05-15T04:56:39.091Z,23.05
2023-05-15T04:59:12.476Z,23.05
2023-05-15T05:01:45.440Z,23.04
2023-05-15T05:04:18.446Z,23.04
2023-05-15T05:06:51.490Z,23.03
2023-05-15T05:09:24.520Z,23.03
2023-05-15T05:11:57.266Z,23.03
2023-05-15T05:14:30.354Z,23.02
2023-05-15T05:17:03.211Z,23.02
2023-05-15T05:19:36.418Z,23.01
2023-05-15T05:22:15.461Z,23.01
2023-05-15T05:24:48.746Z,23.01
2023-05-15T05:27:22.300Z,23.00
2023-05-15T05:29:55.531Z,23.00
2023-05-15T05:32:28.502Z,23.00
2023-05-15T05:35:01.605Z,23.00
2023-05-15T05:37:36.050Z,22.99
2023-05-15T05:40:09.292Z,22.99
2023-05-15T05:42:42.166Z,22.99
2023-05-15T05:45:15.565Z,22.99
2023-05-15T05:47:48.248Z,22.98
2023-05-15T05:50:21.467Z,22.98
2023-05-15T05:52:54.430Z,22.98
2023-05-15T05:55:27.705Z,22.97
2023-05-15T05:58:01.253Z,22.96
2023-05-15T06:00:33.381Z,22.96
2023-05-15T06:03:06.626Z,22.96
2023-05-15T06:05:39.375Z,22.95
2023-05-15T06:08:12.349Z,22.95
2023-05-15T06:10:45.238Z,22.95
2023-05-15T06:13:18.449Z,22.95
2023-05-15T06:15:51.582Z,22.95
2023-05-15T06:18:24.471Z,22.95
2023-05-15T06:20:57.193Z,22.95
2023-05-15T06:23:34.043Z,22.96
2023-05-15T06:26:07.509Z,22.96
2023-05-15T06:28:40.479Z,22.96
2023-05-15T06:31:13.372Z,22.95
2023-05-15T06:33:46.521Z,22.95
2023-05-15T06:36:19.404Z,22.94
2023-05-15T06:38:52.490Z,22.93
2023-05-15T06:41:25.693Z,22.93
2023-05-15T06:43:58.256Z,22.93
2023-05-15T06:46:31.579Z,22.93
2023-05-15T06:49:18.547Z,22.92
2023-05-15T06:51:51.432Z,22.92
2023-05-15T06:54:24.706Z,22.92
2023-05-15T06:56:59.520Z,22.92
2023-05-15T06:59:32.588Z,22.92
2023-05-15T07:02:05.740Z,22.91
2023-05-15T07:04:38.651Z,22.91
2023-05-15T07:07:11.693Z,22.91
2023-05-15T07:09:44.574Z,22.91
2023-05-15T07:12:17.794Z,22.91
2023-05-15T07:14:51.576Z,22.91
2023-05-15T07:17:24.691Z,22.91
2023-05-15T07:19:57.577Z,22.90
2023-05-15T07:22:31.430Z,22.90
2023-05-15T07:25:03.609Z,22.90
2023-05-15T07:27:36.738Z,22.90
2023-05-15T07:30:09.753Z,22.90
2023-05-15T07:32:56.411Z,22.91
2023-05-15T07:35:29.588Z,22.91
2023-05-15T07:38:02.584Z,22.91
2023-05-15T07:40:35.713Z,22.90
2023-05-15T07:43:08.865Z,22.90
2023-05-15T07:45:41.417Z,22.89
2023-05-15T07:48:14.483Z,22.89
2023-05-15T07:50:47.619Z,22.89
2023-05-15T07:53:20.514Z,22.90
2023-05-15T07:55:53.855Z,22.90
2023-05-15T07:58:27.730Z,22.90
2023-05-15T08:01:00.377Z,22.91
2023-05-15T08:03:33.663Z,22.91
2023-05-15T08:06:12.633Z,22.92
2023-05-15T08:08:45.656Z,22.92
2023-05-15T08:11:18.966Z,22.93
2023-05-15T08:13:52.611Z,22.94
2023-05-15T08:16:25.765Z,22.94
2023-05-15T08:18:58.497Z,22.95
2023-05-15T08:21:31.373Z,22.95
2023-05-15T08:24:04.415Z,22.96
2023-05-15T08:26:37.665Z,22.96
2023-05-15T08:29:10.804Z,22.97
2023-05-15T08:31:43.701Z,22.97
2023-05-15T08:34:16.690Z,22.97
2023-05-15T08:36:49.420Z,22.98
2023-05-15T08:39:22.645Z,22.98
2023-05-15T08:41:55.850Z,22.99
2023-05-15T08:44:28.476Z,22.99
2023-05-15T08:47:01.760Z,22.99
2023-05-15T08:49:34.709Z,22.99
2023-05-15T08:52:07.902Z,22.99
2023-05-15T08:54:41.433Z,22.99
2023-05-15T08:57:14.855Z,22.99
2023-05-15T08:59:47.747Z,22.98
2023-05-15T09:02:20.622Z,22.97
2023-05-15T09:04:53.701Z,22.96
2023-05-15T09:07:26.672Z,22.95
2023-05-15T09:09:59.458Z,22.95
2023-05-15T09:12:32.739Z,22.95
2023-05-15T09:15:05.898Z,22.95
2023-05-15T09:17:38.861Z,22.95
2023-05-15T09:20:11.863Z,22.95
2023-05-15T09:22:44.748Z,22.96
2023-05-15T09:25:17.795Z,22.96
2023-05-15T09:27:50.634Z,22.96
2023-05-15T09:30:23.637Z,22.97
2023-05-15T09:32:56.795Z,22.98
2023-05-15T09:35:30.019Z,22.99
2023-05-15T09:38:02.770Z,22.99
2023-05-15T09:40:36.066Z,23.00
2023-05-15T09:43:09.545Z,23.00
2023-05-15T09:45:42.796Z,23.01
2023-05-15T09:48:15.796Z,23.02
2023-05-15T09:50:48.511Z,23.02
2023-05-15T09:53:21.756Z,23.03
2023-05-15T09:55:55.020Z,23.03
2023-05-15T09:58:28.942Z,23.04
2023-05-15T10:01:01.768Z,23.04
2023-05-15T10:03:34.882Z,23.05
2023-05-15T10:06:07.887Z,23.06
2023-05-15T10:08:41.118Z,23.07
2023-05-15T10:11:14.953Z,23.08
2023-05-15T10:13:47.841Z,23.08
2023-05-15T10:16:20.642Z,23.09
2023-05-15T10:18:54.038Z,23.09
2023-05-15T10:21:28.011Z,23.10
2023-05-15T10:24:01.952Z,23.10
2023-05-15T10:26:34.899Z,23.10
2023-05-15T10:29:08.120Z,23.11
2023-05-15T10:31:42.220Z,23.11
2023-05-15T10:34:15.868Z,23.11
2023-05-15T10:36:48.876Z,23.11
2023-05-15T10:39:21.599Z,23.11
2023-05-15T10:42:08.494Z,23.11
2023-05-15T10:44:41.846Z,23.11
2023-05-15T10:47:14.751Z,23.11
2023-05-15T10:49:47.782Z,23.11
2023-05-15T10:52:20.628Z,23.12
2023-05-15T10:54:53.818Z,23.12
2023-05-15T10:57:26.938Z,23.12
2023-05-15T10:59:59.993Z,23.13
2023-05-15T11:02:33.026Z,23.13
2023-05-15T11:05:05.807Z,23.14
2023-05-15T11:07:38.993Z,23.15
2023-05-15T11:10:12.021Z,23.15
2023-05-15T11:12:44.810Z,23.16
2023-05-15T11:15:17.687Z,23.16
2023-05-15T11:17:51.003Z,23.16
2023-05-15T11:20:24.146Z,23.16
2023-05-15T11:22:56.772Z,23.16
2023-05-15T11:25:29.807Z,23.17
2023-05-15T11:28:02.984Z,23.17
2023-05-15T11:30:36.040Z,23.18
2023-05-15T11:33:09.187Z,23.19
2023-05-15T11:35:43.124Z,23.19
2023-05-15T11:38:18.867Z,23.20
2023-05-15T11:40:51.687Z,23.21
2023-05-15T11:43:24.922Z,23.21
2023-05-15T11:45:58.202Z,23.22
2023-05-15T11:48:31.101Z,23.22
2023-05-15T11:51:03.824Z,23.23
2023-05-15T11:53:37.053Z,23.23
2023-05-15T11:56:10.040Z,23.24
2023-05-15T11:58:42.823Z,23.25
2023-05-15T12:01:15.988Z,23.26
2023-05-15T12:03:49.279Z,23.27
2023-05-15T12:06:21.971Z,23.27
2023-05-15T12:08:54.731Z,23.28
2023-05-15T12:11:28.075Z,23.29
2023-05-15T12:14:01.113Z,23.29
2023-05-15T12:16:33.889Z,23.30
2023-05-15T12:19:06.844Z,23.31
2023-05-15T12:21:39.923Z,23.31
2023-05-15T12:24:12.817Z,23.32
2023-05-15T12:26:45.747Z,23.33
2023-05-15T12:29:19.044Z,23.33
2023-05-15T12:31:51.783Z,23.34
2023-05-15T12:34:24.980Z,23.34
2023-05-15T12:36:57.911Z,23.35
2023-05-15T12:39:30.991Z,23.36
2023-05-15T12:42:03.781Z,23.37
2023-05-15T12:44:36.928Z,23.37
2023-05-15T12:47:09.779Z,23.38
2023-05-15T12:49:42.917Z,23.39
2023-05-15T12:52:15.799Z,23.39
2023-05-15T12:54:48.793Z,23.40
2023-05-15T12:57:21.885Z,23.41
2023-05-15T12:59:54.837Z,23.41
2023-05-15T13:02:28.005Z,23.42
2023-05-15T13:05:01.064Z,23.43
2023-05-15T13:07:34.144Z,23.43
2023-05-15T13:10:06.973Z,23.44
2023-05-15T13:12:40.362Z,23.45
2023-05-15T13:15:14.047Z,23.45
2023-05-15T13:17:46.851Z,23.47
2023-05-15T13:20:19.827Z,23.49
2023-05-15T13:22:53.059Z,23.50
2023-05-15T13:25:25.889Z,23.51
2023-05-15T13:27:58.988Z,23.52
2023-05-15T13:30:32.155Z,23.53
2023-05-15T13:33:05.245Z,23.53
2023-05-15T13:35:37.956Z,23.54
2023-05-15T13:38:11.723Z,23.55
2023-05-15T13:40:44.108Z,23.56
2023-05-15T13:43:16.841Z,23.57
2023-05-15T13:45:49.865Z,23.58
2023-05-15T13:48:22.864Z,23.59
2023-05-15T13:50:56.161Z,23.61
2023-05-15T13:53:29.258Z,23.62
2023-05-15T13:56:02.042Z,23.64
2023-05-15T13:58:35.083Z,23.65
2023-05-15T14:01:08.197Z,23.67
2023-05-15T14:03:41.227Z,23.69
2023-05-15T14:06:28.017Z,23.71
2023-05-15T14:09:01.093Z,23.73
2023-05-15T14:11:34.065Z,23.74
2023-05-15T14:14:07.038Z,23.76
2023-05-15T14:16:40.157Z,23.78
2023-05-15T14:19:13.128Z,23.81
2023-05-15T14:21:45.943Z,23.84
2023-05-15T14:24:18.921Z,23.85
2023-05-15T14:26:52.183Z,23.87
2023-05-15T14:29:24.968Z,23.89
2023-05-15T14:31:58.283Z,23.90
2023-05-15T14:34:31.305Z,23.91
2023-05-15T14:37:04.167Z,23.92
2023-05-15T14:39:37.209Z,23.93
2023-05-15T14:42:10.269Z,23.93
2023-05-15T14:44:43.126Z,23.94
2023-05-15T14:47:18.864Z,23.94
2023-05-15T14:49:51.975Z,23.94
2023-05-15T14:52:24.981Z,23.95
2023-05-15T14:55:08.410Z,23.95
2023-05-15T14:57:31.135Z,23.95
2023-05-15T15:00:04.423Z,23.96
2023-05-15T15:02:37.280Z,23.97
2023-05-15T15:05:10.331Z,23.97
2023-05-15T15:07:43.021Z,23.97
2023-05-15T15:10:16.235Z,23.98
2023-05-15T15:12:49.025Z,23.98
2023-05-15T15:15:22.000Z,23.99
2023-05-15T15:17:55.220Z,23.99
2023-05-15T15:20:28.595Z,23.99
2023-05-15T15:23:01.268Z,24.00
2023-05-15T15:25:34.005Z,24.00
2023-05-15T15:28:07.366Z,24.00
2023-05-15T15:30:40.180Z,24.01
2023-05-15T15:33:13.176Z,24.01
2023-05-15T15:35:46.439Z,24.02
2023-05-15T15:38:19.296Z,24.03
2023-05-15T15:40:52.327Z,24.04
2023-05-15T15:43:25.253Z,24.05
2023-05-15T15:45:58.091Z,24.07
2023-05-15T15:48:31.465Z,24.08
2023-05-15T15:51:06.060Z,24.09
2023-05-15T15:53:39.249Z,24.10
2023-05-15T15:56:12.331Z,24.11
2023-05-15T15:58:45.424Z,24.12
2023-05-15T16:01:18.090Z,24.13
2023-05-15T16:03:51.353Z,24.15
2023-05-15T16:06:24.178Z,24.16
2023-05-15T16:08:57.614Z,24.16
2023-05-15T16:11:31.430Z,24.17
2023-05-15T16:14:04.341Z,24.17
2023-05-15T16:16:37.253Z,24.17
2023-05-15T16:19:10.669Z,24.18
2023-05-15T16:21:44.228Z,24.18
2023-05-15T16:24:17.440Z,24.18
2023-05-15T16:26:50.368Z,24.18
2023-05-15T16:29:23.282Z,24.19
2023-05-15T16:31:56.182Z,24.19
2023-05-15T16:34:29.263Z,24.20
2023-05-15T16:37:02.113Z,24.21
2023-05-15T16:39:35.362Z,24.21
2023-05-15T16:42:09.468Z,24.22
2023-05-15T16:44:41.409Z,24.23
2023-05-15T16:47:14.475Z,24.23
2023-05-15T16:49:49.780Z,24.23
2023-05-15T16:52:24.116Z,24.24
2023-05-15T16:54:57.323Z,24.24
2023-05-15T16:57:30.334Z,24.25
2023-05-15T17:00:03.134Z,24.25
2023-05-15T17:02:36.239Z,24.26
2023-05-15T17:05:09.134Z,24.26
2023-05-15T17:07:42.320Z,24.26
2023-05-15T17:10:15.301Z,24.27
2023-05-15T17:12:48.154Z,24.27
2023-05-15T17:15:21.169Z,24.27
2023-05-15T17:17:54.188Z,24.28
2023-05-15T17:20:27.278Z,24.28
2023-05-15T17:23:00.685Z,24.28
2023-05-15T17:25:34.561Z,24.28
2023-05-15T17:28:07.158Z,24.28
2023-05-15T17:30:40.404Z,24.28
2023-05-15T17:33:13.490Z,24.28
2023-05-15T17:35:46.206Z,24.28
2023-05-15T17:38:19.500Z,24.28
2023-05-15T17:40:52.216Z,24.28
2023-05-15T17:43:25.847Z,24.27
2023-05-15T17:45:59.526Z,24.27
2023-05-15T17:48:32.569Z,24.26
2023-05-15T17:51:05.237Z,24.26
2023-05-15T17:53:38.196Z,24.25
2023-05-15T17:56:11.220Z,24.24
2023-05-15T17:58:44.390Z,24.22
2023-05-15T18:01:17.267Z,24.21
2023-05-15T18:03:50.267Z,24.20
2023-05-15T18:06:23.264Z,24.19
2023-05-15T18:08:56.335Z,24.18
2023-05-15T18:11:29.501Z,24.18
2023-05-15T18:14:02.370Z,24.17
2023-05-15T18:16:35.382Z,24.15
2023-05-15T18:19:08.334Z,24.14
2023-05-15T18:21:41.252Z,24.13
2023-05-15T18:24:14.270Z,24.12
2023-05-15T18:26:47.280Z,24.11
2023-05-15T18:29:20.252Z,24.10
2023-05-15T18:31:53.326Z,24.09
2023-05-15T18:34:26.480Z,24.08
2023-05-15T18:36:59.471Z,24.07
2023-05-15T18:39:32.676Z,24.06
2023-05-15T18:42:05.557Z,24.05
2023-05-15T18:44:38.530Z,24.04
2023-05-15T18:47:11.584Z,24.03
2023-05-15T18:49:44.270Z,24.02
2023-05-15T18:52:17.582Z,24.01
2023-05-15T18:54:50.571Z,24.01
2023-05-15T18:57:23.352Z,24.00
2023-05-15T18:59:56.638Z,23.99
2023-05-15T19:02:29.537Z,23.99
2023-05-15T19:05:02.564Z,23.98
2023-05-15T19:07:35.573Z,23.97
2023-05-15T19:10:08.324Z,23.97
2023-05-15T19:12:41.460Z,23.96
2023-05-15T19:15:14.690Z,23.95
2023-05-15T19:17:47.669Z,23.94
2023-05-15T19:20:20.322Z,23.94
2023-05-15T19:22:53.684Z,23.92
2023-05-15T19:25:26.484Z,23.92
2023-05-15T19:27:59.582Z,23.91
2023-05-15T19:30:32.836Z,23.91
2023-05-15T19:33:06.837Z,23.91
2023-05-15T19:35:40.569Z,23.91
2023-05-15T19:38:13.652Z,23.91
2023-05-15T19:40:46.651Z,23.91
2023-05-15T19:43:19.516Z,23.92
2023-05-15T19:46:06.363Z,23.92
2023-05-15T19:48:39.363Z,23.92
2023-05-15T19:51:12.703Z,23.93
2023-05-15T19:53:45.845Z,23.93
2023-05-15T19:56:19.487Z,23.94
2023-05-15T19:58:52.843Z,23.95
2023-05-15T20:01:25.673Z,23.95
2023-05-15T20:03:58.825Z,23.96
2023-05-15T20:06:31.648Z,23.97
2023-05-15T20:09:04.390Z,23.98
2023-05-15T20:11:37.615Z,23.98
2023-05-15T20:14:10.675Z,23.99
2023-05-15T20:16:43.694Z,24.00
2023-05-15T20:19:16.870Z,24.01
2023-05-15T20:21:49.407Z,24.01
2023-05-15T20:24:22.691Z,24.02
2023-05-15T20:26:55.948Z,24.03
2023-05-15T20:29:29.811Z,24.03
2023-05-15T20:32:02.778Z,24.04
2023-05-15T20:34:35.810Z,24.05
2023-05-15T20:37:08.805Z,24.06
2023-05-15T20:39:41.946Z,24.07
2023-05-15T20:42:15.930Z,24.07
2023-05-15T20:44:49.960Z,24.08
2023-05-15T20:47:23.657Z,24.09
2023-05-15T20:49:56.850Z,24.09
2023-05-15T20:52:29.871Z,24.09
2023-05-15T20:55:02.630Z,24.10
2023-05-15T20:57:35.664Z,24.10
2023-05-15T21:00:08.636Z,24.10
2023-05-15T21:02:41.674Z,24.11
2023-05-15T21:05:14.507Z,24.11
2023-05-15T21:07:47.926Z,24.11
2023-05-15T21:10:21.500Z,24.11
2023-05-15T21:12:56.043Z,24.12
2023-05-15T21:15:27.894Z,24.12
2023-05-15T21:18:00.692Z,24.12
2023-05-15T21:20:35.270Z,24.12
2023-05-15T21:23:07.877Z,24.11
2023-05-15T21:25:40.947Z,24.11
2023-05-15T21:28:14.807Z,24.10
2023-05-15T21:30:47.933Z,24.10
2023-05-15T21:33:20.757Z,24.10
2023-05-15T21:35:53.850Z,24.10
2023-05-15T21:38:26.924Z,24.10
2023-05-15T21:40:59.929Z,24.09
2023-05-15T21:43:32.969Z,24.09
2023-05-15T21:46:06.918Z,24.09
2023-05-15T21:48:39.891Z,24.08
2023-05-15T21:51:12.931Z,24.08
2023-05-15T21:53:45.811Z,24.07
2023-05-15T21:56:18.600Z,24.06
2023-05-15T21:58:51.893Z,24.06
2023-05-15T22:01:25.017Z,24.04
2023-05-15T22:03:57.935Z,24.04
2023-05-15T22:06:30.897Z,24.03
2023-05-15T22:09:04.157Z,24.02
2023-05-15T22:11:37.957Z,24.01
2023-05-15T22:14:10.968Z,24.00
2023-05-15T22:16:44.061Z,23.99
2023-05-15T22:19:28.910Z,23.98
2023-05-15T22:21:49.932Z,23.97
2023-05-15T22:24:22.864Z,23.96
2023-05-15T22:26:56.014Z,23.95
2023-05-15T22:29:29.010Z,23.94
2023-05-15T22:32:02.029Z,23.93
2023-05-15T22:34:35.037Z,23.92
2023-05-15T22:37:07.961Z,23.92
2023-05-15T22:39:40.961Z,23.91
2023-05-15T22:42:13.927Z,23.90
2023-05-15T22:44:46.972Z,23.89
2023-05-15T22:47:19.955Z,23.88
2023-05-15T22:49:53.035Z,23.88
2023-05-15T22:52:25.627Z,23.87
2023-05-15T22:54:58.789Z,23.86
2023-05-15T22:57:32.013Z,23.85
2023-05-15T23:00:04.789Z,23.84
2023-05-15T23:02:38.054Z,23.83
2023-05-15T23:05:10.692Z,23.82
2023-05-15T23:07:44.014Z,23.81
2023-05-15T23:10:17.114Z,23.81
2023-05-15T23:12:50.078Z,23.80
2023-05-15T23:15:23.006Z,23.79
2023-05-15T23:17:56.341Z,23.78
2023-05-15T23:20:30.170Z,23.78
2023-05-15T23:23:03.022Z,23.77
2023-05-15T23:25:36.036Z,23.76
2023-05-15T23:28:08.793Z,23.76
2023-05-15T23:30:41.918Z,23.75
2023-05-15T23:33:15.231Z,23.74
2023-05-15T23:35:49.030Z,23.74
2023-05-15T23:38:22.011Z,23.73
2023-05-15T23:40:55.067Z,23.72
2023-05-15T23:43:27.958Z,23.71
2023-05-15T23:46:01.053Z,23.70
2023-05-15T23:48:34.183Z,23.70
2023-05-15T23:51:08.070Z,23.69
2023-05-15T23:53:41.279Z,23.68
2023-05-15T23:56:15.109Z,23.68
2023-05-15T23:58:51.950Z,23.67
